Карточка аэропорта UHMM

Внимание!
Информация на этой странице в стадии наполнения.
Если вы не увидели какой-то информации, или заметили неточность - пожалуйста сообщите нам!
Спасибо!
Команда RU-STAFF
Название аэропортаСокол
Название аэропорта (англ.)Sokol
Превышение574 ft. (175 m.)
Координаты59°54.648', 150°43.2'
Высота перехода2500m
Эшелон переходаQFE>=744mm: FL100; 744mm>QFE>=717mm: FL110; QFE<717mm: FL120
Коды ответчика6540-6577
Зона ОрВДМагадан РПИ (UHMM)
Данные METARUHMM 302100Z 11002MPS 090V160 2800 -SHSN VV009 M06/M08 Q0985 R10/490332 TEMPO 0500 +SHSN RMK QFE724 R28/14003MPS 100V230
Проноз погоды (TAF)UHMM 301948Z 3021/0203 17003G10MPS 0700 +SHSN VV003 TEMPO 3021/0104 1800 SHSN BKN007 OVC020CB FM010400 12003G09MPS 1800 SHSN BKN009 OVC015CB TEMPO 0104/0203 0500 +SHSN VV003
NOTAMshow/hide NOTAM
AWOS   TABLE

Информация о ВПП


Диспетчерские позиции

Позывной Наименование органа УВД Частота
UHMM_APPМагадан-Подход119.3
UHMM_TWRМагадан-Вышка120.8



Спутниковое изображение